Portada
METAR-TAF:

METAR-TAF

Aeropuertos :

Cascaes, Portugal

latitud: 38-43-32N, longitud: 009-21-19W, altitud: 99 m

Observación

El informe se hizo hace 35 minutos, a las 12:00 UTC
Viento 9 kt del este, variando entre este-noreste y sureste
Temperatura 19°C
Humedad 73%
Presión 1014 hPa
Visibilidad 10 km o más
Escasas nubes a una altura de 3500 ft

METAR: LPCS 151200Z 10009KT 060V140 9999 FEW035 19/14 Q1014

Hora: 12:35 (12:35 UTC)

Pronóstico

El informe se hizo hace 1 hora y 35 minutos, a las 11:00 UTC
Pronóstico válido del 15 a las 12 UTC al 15 a las 21 UTC
Viento 10 kt del este
Visibilidad 10 km o más
Escasas nubes a una altura de 3500 ft
Evolucionando progresivamente
del 15 a las 18 UTC al 15 a las 21 UTC
Viento 3 kt con dirección variable

TAF: LPCS 151100Z 1512/1521 10010KT 9999 FEW035 BECMG 1518/1521 VRB03KT

Observaciones y pronósticos meteorológicos de más de 4000 aeropuertos (mensajes METAR y TAF).

Los puntos amarillos y rojos representan las estaciones disponibles.

Ponga el ratón en el punto deseado para ver el nombre de la estación.

Haga clic para ver las observaciones y los pronósticos meteorológicos.

Para cambiar el mapa : haga clic en los botones verdes con una cruz de color negro para hacer un zoom, en el botón verde con un guión para alejar o en las flechas verdes para mapas adyacentes.


METAR-TAF: